Darstellungsparameter: Aktuell verwendete Einstellungen:
Skalierung der Graphiken ... ?
xyx+y,   Skalierungsfaktor:      Skalierung: Modus: x, Faktor: 1
Darstellungszeitraum ... ?
Vom - - bis: - -   Zeitraum: 08.04.2020 - 10.04.2020
Min/Max/Avg-Anzeige ... ?
Zeige MMA aktuell
Zeige MMA Monat
Zeige MMA alles
Zeige --A aktuell
Zeige --A Monat
Zeige --A alles
Keine MMA-Anzeige
MMA:
Average (ber die Originaldaten)
MMA-Basis: 08.04.2020 - 10.04.2020
Quicknavigation für Darstellung... ?
Tage:      1T, 2T, 3T, 5T -1T -2T -3T -5T +1T +2T +3T +5T
Wochen: 1W, 2W, 3W -1W -2W -3W +1W +2W +3W
Monate: 1M, 3M, 6M -1M -3M -6M +1M +3M +6M
Jahre:    1J, 3J, 5J, 10J -1J -3J -5J -10J +1J +3J +5J +10J
Nutze für die Darstellung ... ?
Originaldaten oder Mittelwerte auf ...
Stundenbasis Tagesbasis Wochenbasis
Monatsbasis Jahresbasis      Datenbasis: Original-Daten
Darstellen als:
Statistik (Auto) Statistik J:M      Darstellung:
Zur Graphik,    zurück zur Übersicht aller Sensoren.
 
Tabellarische Datenbersicht: ?
 
Sensor: Nr:Datum:Temp:Abs-Feuchte:Windchill:Wind:
Aussen-T/F 1 08-04-2020 00:00:00 12.6 C 8.3 g/m*3 12.6 C 1.6 km/h
2 08-04-2020 00:05:00 12.4 C 8.3 g/m*3 12.4 C 3.2 km/h
3 08-04-2020 00:10:00 12.3 C 8.36 g/m*3 12.3 C 3.2 km/h
4 08-04-2020 00:15:00 12.2 C 8.31 g/m*3 12.2 C 4.8 km/h
5 08-04-2020 00:20:00 12.2 C 8.42 g/m*3 12.2 C 3.2 km/h
6 08-04-2020 00:25:00 12.2 C 8.42 g/m*3 12.2 C 4.8 km/h
7 08-04-2020 00:30:00 12.1 C 8.36 g/m*3 12.1 C 3.2 km/h
8 08-04-2020 00:35:00 12 C 8.42 g/m*3 12 C 3.2 km/h
9 08-04-2020 00:40:00 12 C 8.42 g/m*3 12 C 4.8 km/h
10 08-04-2020 00:45:00 11.9 C 8.37 g/m*3 11.9 C 3.2 km/h
11 08-04-2020 00:50:00 11.8 C 8.31 g/m*3 11.8 C 1.6 km/h
12 08-04-2020 00:55:00 11.7 C 8.26 g/m*3 11.7 C 3.2 km/h
13 08-04-2020 01:00:00 11.5 C 8.26 g/m*3 11.5 C 1.6 km/h
14 08-04-2020 01:05:00 11.4 C 8.21 g/m*3 11.4 C 1.6 km/h
15 08-04-2020 01:10:00 11.3 C 8.26 g/m*3 11.3 C 4.8 km/h
16 08-04-2020 01:15:00 11.3 C 8.16 g/m*3 11.3 C 1.6 km/h
17 08-04-2020 01:20:00 11.2 C 8.21 g/m*3 11.2 C 3.2 km/h
18 08-04-2020 01:25:00 11.1 C 8.16 g/m*3 11.1 C 0 km/h
19 08-04-2020 01:30:00 10.9 C 8.16 g/m*3 10.9 C 0 km/h
20 08-04-2020 01:35:00 10.8 C 8.11 g/m*3 10.8 C 1.6 km/h
21 08-04-2020 01:40:00 10.8 C 8.11 g/m*3 10.8 C 0 km/h
22 08-04-2020 01:45:00 10.7 C 8.05 g/m*3 10.7 C 0 km/h
23 08-04-2020 01:50:00 10.5 C 8.05 g/m*3 10.5 C 0 km/h
24 08-04-2020 01:55:00 10.4 C 8 g/m*3 10.4 C 0 km/h
25 08-04-2020 02:00:00 10.3 C 7.95 g/m*3 10.3 C 0 km/h
Sensor: Nr:Datum:Temp:Abs-Feuchte:Windchill:Wind:
Aussen-T/F 26 08-04-2020 02:05:00 10.1 C 7.85 g/m*3 10.1 C 0 km/h
27 08-04-2020 02:10:00 10 C 7.89 g/m*3 10 C 0 km/h
28 08-04-2020 02:15:00 9.8 C 7.79 g/m*3 9.8 C 0 km/h
29 08-04-2020 02:20:00 9.6 C 7.79 g/m*3 9.6 C 0 km/h
30 08-04-2020 02:25:00 9.5 C 7.74 g/m*3 9.5 C 0 km/h
31 08-04-2020 02:30:00 9.3 C 7.64 g/m*3 9.3 C 0 km/h
32 08-04-2020 02:35:00 9.2 C 7.68 g/m*3 9.2 C 0 km/h
33 08-04-2020 02:40:00 9.1 C 7.63 g/m*3 9.1 C 0 km/h
34 08-04-2020 02:45:00 8.9 C 7.53 g/m*3 8.9 C 0 km/h
35 08-04-2020 02:50:00 8.8 C 7.57 g/m*3 8.8 C 0 km/h
36 08-04-2020 02:55:00 8.7 C 7.52 g/m*3 8.7 C 0 km/h
37 08-04-2020 03:00:00 8.6 C 7.48 g/m*3 8.6 C 0 km/h
38 08-04-2020 03:05:00 8.3 C 7.33 g/m*3 8.3 C 0 km/h
39 08-04-2020 03:10:00 8.2 C 7.37 g/m*3 8.2 C 0 km/h
40 08-04-2020 03:15:00 8.1 C 7.32 g/m*3 8.1 C 0 km/h
41 08-04-2020 03:20:00 7.9 C 7.23 g/m*3 7.9 C 0 km/h
42 08-04-2020 03:25:00 7.9 C 7.31 g/m*3 7.9 C 0 km/h
43 08-04-2020 03:30:00 7.9 C 7.39 g/m*3 7.9 C 0 km/h
44 08-04-2020 03:35:00 7.9 C 7.39 g/m*3 7.9 C 0 km/h
45 08-04-2020 03:40:00 7.8 C 7.35 g/m*3 7.8 C 0 km/h
46 08-04-2020 03:45:00 7.7 C 7.3 g/m*3 7.7 C 0 km/h
47 08-04-2020 03:50:00 7.6 C 7.25 g/m*3 7.6 C 0 km/h
48 08-04-2020 03:55:00 7.5 C 7.2 g/m*3 7.5 C 0 km/h
49 08-04-2020 04:00:00 7.4 C 7.16 g/m*3 7.4 C 0 km/h
50 08-04-2020 04:05:00 7.4 C 7.24 g/m*3 7.4 C 0 km/h
Sensor: Nr:Datum:Temp:Abs-Feuchte:Windchill:Wind:
Aussen-T/F 51 08-04-2020 04:10:00 7.4 C 7.24 g/m*3 7.4 C 0 km/h
52 08-04-2020 04:15:00 7.3 C 7.19 g/m*3 7.3 C 0 km/h
53 08-04-2020 04:20:00 7.3 C 7.19 g/m*3 7.3 C 0 km/h
54 08-04-2020 04:25:00 7.2 C 7.22 g/m*3 7.2 C 0 km/h
55 08-04-2020 04:30:00 7.3 C 7.27 g/m*3 7.3 C 0 km/h
56 08-04-2020 04:35:00 7.2 C 7.14 g/m*3 7.2 C 0 km/h
57 08-04-2020 04:40:00 7 C 7.05 g/m*3 7 C 0 km/h
58 08-04-2020 04:45:00 6.9 C 7.08 g/m*3 6.9 C 0 km/h
59 08-04-2020 04:50:00 6.9 C 7.08 g/m*3 6.9 C 0 km/h
60 08-04-2020 04:55:00 6.8 C 7.04 g/m*3 6.8 C 0 km/h
61 08-04-2020 05:00:00 6.8 C 7.04 g/m*3 6.8 C 0 km/h
62 08-04-2020 05:05:00 6.8 C 7.04 g/m*3 6.8 C 0 km/h
63 08-04-2020 05:10:00 6.7 C 6.99 g/m*3 6.7 C 0 km/h
64 08-04-2020 05:15:00 6.7 C 7.07 g/m*3 6.7 C 0 km/h
65 08-04-2020 05:20:00 6.6 C 6.95 g/m*3 6.6 C 0 km/h
66 08-04-2020 05:25:00 6.5 C 6.9 g/m*3 6.5 C 0 km/h
67 08-04-2020 05:30:00 6.4 C 6.85 g/m*3 6.4 C 0 km/h
68 08-04-2020 05:35:00 6.4 C 6.93 g/m*3 6.4 C 0 km/h
69 08-04-2020 05:40:00 6.3 C 6.88 g/m*3 6.3 C 0 km/h
70 08-04-2020 05:45:00 6.2 C 6.84 g/m*3 6.2 C 0 km/h
71 08-04-2020 05:50:00 6.2 C 6.84 g/m*3 6.2 C 0 km/h
72 08-04-2020 05:55:00 6.2 C 6.84 g/m*3 6.2 C 0 km/h
73 08-04-2020 06:00:00 6.2 C 6.84 g/m*3 6.2 C 0 km/h
74 08-04-2020 06:05:00 6.2 C 6.84 g/m*3 6.2 C 0 km/h
75 08-04-2020 06:10:00 6.1 C 6.79 g/m*3 6.1 C 0 km/h
Sensor: Nr:Datum:Temp:Abs-Feuchte:Windchill:Wind:
Aussen-T/F 76 08-04-2020 06:15:00 6.1 C 6.79 g/m*3 6.1 C 0 km/h
77 08-04-2020 06:20:00 6 C 6.75 g/m*3 6 C 0 km/h
78 08-04-2020 06:25:00 6 C 6.82 g/m*3 6 C 0 km/h
79 08-04-2020 06:30:00 6.1 C 6.87 g/m*3 6.1 C 0 km/h
80 08-04-2020 06:35:00 5.9 C 6.78 g/m*3 5.9 C 0 km/h
81 08-04-2020 06:40:00 5.8 C 6.66 g/m*3 5.8 C 0 km/h
82 08-04-2020 06:45:00 5.7 C 6.69 g/m*3 5.7 C 0 km/h
83 08-04-2020 06:50:00 5.7 C 6.69 g/m*3 5.7 C 0 km/h
84 08-04-2020 06:55:00 5.6 C 6.65 g/m*3 5.6 C 0 km/h
85 08-04-2020 07:00:00 5.7 C 6.69 g/m*3 5.7 C 0 km/h
86 08-04-2020 07:05:00 5.7 C 6.69 g/m*3 5.7 C 0 km/h
87 08-04-2020 07:10:00 5.7 C 6.69 g/m*3 5.7 C 0 km/h
88 08-04-2020 07:15:00 5.7 C 6.69 g/m*3 5.7 C 0 km/h
89 08-04-2020 07:20:00 5.8 C 6.73 g/m*3 5.8 C 0 km/h
90 08-04-2020 07:25:00 5.8 C 6.73 g/m*3 5.8 C 0 km/h
91 08-04-2020 07:30:00 5.8 C 6.73 g/m*3 5.8 C 0 km/h
92 08-04-2020 07:35:00 5.8 C 6.81 g/m*3 5.8 C 0 km/h
93 08-04-2020 07:40:00 5.8 C 6.81 g/m*3 5.8 C 0 km/h
94 08-04-2020 07:45:00 6 C 6.9 g/m*3 6 C 1.6 km/h
95 08-04-2020 07:50:00 6.2 C 6.99 g/m*3 6.2 C 0 km/h
96 08-04-2020 07:55:00 6.3 C 7.03 g/m*3 6.3 C 0 km/h
97 08-04-2020 08:00:00 6.3 C 7.03 g/m*3 6.3 C 0 km/h
98 08-04-2020 08:05:00 6.3 C 7.03 g/m*3 6.3 C 0 km/h
99 08-04-2020 08:10:00 6.3 C 7.03 g/m*3 6.3 C 0 km/h
100 08-04-2020 08:15:00 6.3 C 7.03 g/m*3 6.3 C 0 km/h
Sensor: Nr:Datum:Temp:Abs-Feuchte:Windchill:Wind:
Aussen-T/F 101 08-04-2020 08:20:00 6.4 C 7.08 g/m*3 6.4 C 0 km/h
102 08-04-2020 08:25:00 6.7 C 7.22 g/m*3 6.7 C 0 km/h
103 08-04-2020 08:30:00 6.7 C 7.29 g/m*3 6.7 C 0 km/h
104 08-04-2020 08:35:00 6.8 C 7.34 g/m*3 6.8 C 0 km/h
105 08-04-2020 08:40:00 6.9 C 7.39 g/m*3 6.9 C 0 km/h
106 08-04-2020 08:45:00 6.9 C 7.31 g/m*3 6.9 C 0 km/h
107 08-04-2020 08:50:00 7 C 7.36 g/m*3 7 C 0 km/h
108 08-04-2020 08:55:00 7.1 C 7.41 g/m*3 7.1 C 0 km/h
109 08-04-2020 09:00:00 7.2 C 7.54 g/m*3 7.2 C 0 km/h
110 08-04-2020 09:05:00 7.3 C 7.58 g/m*3 7.3 C 0 km/h
111 08-04-2020 09:10:00 7.4 C 7.63 g/m*3 7.4 C 0 km/h
112 08-04-2020 09:15:00 7.4 C 7.63 g/m*3 7.4 C 0 km/h
113 08-04-2020 09:20:00 7.6 C 7.73 g/m*3 7.6 C 0 km/h
114 08-04-2020 09:25:00 7.7 C 7.78 g/m*3 7.7 C 0 km/h
115 08-04-2020 09:30:00 7.9 C 7.89 g/m*3 7.9 C 0 km/h
116 08-04-2020 09:35:00 8.1 C 7.99 g/m*3 8.1 C 0 km/h
117 08-04-2020 09:40:00 8.2 C 8.04 g/m*3 8.2 C 0 km/h
118 08-04-2020 09:45:00 8.4 C 8.14 g/m*3 8.4 C 0 km/h
119 08-04-2020 09:50:00 8.6 C 8.25 g/m*3 8.6 C 0 km/h
120 08-04-2020 09:55:00 8.7 C 8.3 g/m*3 8.7 C 0 km/h
121 08-04-2020 10:00:00 8.9 C 8.41 g/m*3 8.9 C 0 km/h
122 08-04-2020 10:05:00 9.1 C 8.52 g/m*3 9.1 C 0 km/h
123 08-04-2020 10:10:00 9.2 C 8.57 g/m*3 9.2 C 0 km/h
124 08-04-2020 10:15:00 9.4 C 8.68 g/m*3 9.4 C 0 km/h
125 08-04-2020 10:20:00 9.7 C 8.85 g/m*3 9.7 C 0 km/h
Sensor: Nr:Datum:Temp:Abs-Feuchte:Windchill:Wind:
Aussen-T/F 126 08-04-2020 10:25:00 9.9 C 8.96 g/m*3 9.9 C 0 km/h
127 08-04-2020 10:30:00 10.2 C 9.04 g/m*3 10.2 C 0 km/h
128 08-04-2020 10:35:00 10.4 C 9.16 g/m*3 10.4 C 0 km/h
129 08-04-2020 10:40:00 10.8 C 9.29 g/m*3 10.8 C 0 km/h
130 08-04-2020 10:45:00 11.2 C 9.43 g/m*3 11.2 C 0 km/h
131 08-04-2020 10:50:00 11.6 C 9.56 g/m*3 11.6 C 0 km/h
132 08-04-2020 10:55:00 12 C 9.59 g/m*3 12 C 0 km/h
133 08-04-2020 11:00:00 12.4 C 9.62 g/m*3 12.4 C 0 km/h
134 08-04-2020 11:05:00 12.9 C 9.81 g/m*3 12.9 C 0 km/h
135 08-04-2020 11:10:00 13.3 C 9.82 g/m*3 13.3 C 0 km/h
136 08-04-2020 11:15:00 13.8 C 9.89 g/m*3 13.8 C 0 km/h
137 08-04-2020 11:20:00 14.3 C 10.07 g/m*3 14.3 C 0 km/h
138 08-04-2020 11:25:00 14.8 C 10.26 g/m*3 14.8 C 0 km/h
139 08-04-2020 11:30:00 15.1 C 10.32 g/m*3 15.1 C 0 km/h
140 08-04-2020 11:35:00 15.4 C 10.25 g/m*3 15.4 C 0 km/h
141 08-04-2020 11:40:00 15.9 C 10.02 g/m*3 15.9 C 1.6 km/h
142 08-04-2020 11:45:00 16.4 C 9.91 g/m*3 16.4 C 0 km/h
143 08-04-2020 11:50:00 17 C 10.13 g/m*3 17 C 1.6 km/h
144 08-04-2020 11:55:00 17.5 C 10.29 g/m*3 17.5 C 0 km/h
145 08-04-2020 12:00:00 18.1 C 9.58 g/m*3 18.1 C 1.6 km/h
146 08-04-2020 12:05:00 18.5 C 9.81 g/m*3 18.5 C 0 km/h
147 08-04-2020 12:10:00 18.9 C 9.4 g/m*3 18.9 C 0 km/h
148 08-04-2020 12:15:00 19.3 C 9.29 g/m*3 19.3 C 0 km/h
149 08-04-2020 12:20:00 19.7 C 9.34 g/m*3 19.7 C 4.8 km/h
150 08-04-2020 12:25:00 19.9 C 8.93 g/m*3 19.9 C 1.6 km/h
Sensor: Nr:Datum:Temp:Abs-Feuchte:Windchill:Wind:
Aussen-T/F 151 08-04-2020 12:30:00 20.2 C 8.57 g/m*3 20.2 C 4.8 km/h
152 08-04-2020 12:35:00 20.4 C 8.49 g/m*3 20.4 C 6.4 km/h
153 08-04-2020 12:40:00 20.6 C 8.41 g/m*3 20.6 C 1.6 km/h
154 08-04-2020 12:45:00 20.8 C 8.51 g/m*3 20.8 C 4.8 km/h
155 08-04-2020 12:50:00 20.9 C 8.01 g/m*3 20.9 C 8.1 km/h
156 08-04-2020 12:55:00 21.1 C 7.92 g/m*3 21.1 C 8.1 km/h
157 08-04-2020 13:00:00 21.2 C 7.97 g/m*3 21.2 C 6.4 km/h
158 08-04-2020 13:05:00 21.3 C 7.64 g/m*3 21.3 C 6.4 km/h
159 08-04-2020 13:10:00 21.5 C 7.73 g/m*3 21.5 C 9.7 km/h
160 08-04-2020 13:15:00 21.7 C 7.06 g/m*3 21.7 C 11.3 km/h
161 08-04-2020 13:20:00 21.8 C 6.91 g/m*3 21.8 C 9.7 km/h
162 08-04-2020 13:25:00 21.8 C 6.72 g/m*3 21.8 C 6.4 km/h
163 08-04-2020 13:30:00 21.7 C 6.68 g/m*3 21.7 C 6.4 km/h
164 08-04-2020 13:35:00 21.8 C 6.72 g/m*3 21.8 C 6.4 km/h
165 08-04-2020 13:40:00 22 C 6.21 g/m*3 22 C 8.1 km/h
166 08-04-2020 13:45:00 22.1 C 5.86 g/m*3 22.1 C 8.1 km/h
167 08-04-2020 13:50:00 22.1 C 5.86 g/m*3 22.1 C 6.4 km/h
168 08-04-2020 13:55:00 22.2 C 5.89 g/m*3 22.2 C 8.1 km/h
169 08-04-2020 14:00:00 22.2 C 5.69 g/m*3 22.2 C 6.4 km/h
170 08-04-2020 14:05:00 22.3 C 5.73 g/m*3 22.3 C 9.7 km/h
171 08-04-2020 14:10:00 22.4 C 5.76 g/m*3 22.4 C 8.1 km/h
172 08-04-2020 14:15:00 22.6 C 6.03 g/m*3 22.6 C 8.1 km/h
173 08-04-2020 14:20:00 22.7 C 6.06 g/m*3 22.7 C 11.3 km/h
174 08-04-2020 14:25:00 22.9 C 5.93 g/m*3 22.9 C 6.4 km/h
175 08-04-2020 14:30:00 23.1 C 5.99 g/m*3 23.1 C 8.1 km/h
Sensor: Nr:Datum:Temp:Abs-Feuchte:Windchill:Wind:
Aussen-T/F 176 08-04-2020 14:35:00 23.2 C 5.82 g/m*3 23.2 C 6.4 km/h
177 08-04-2020 14:40:00 23.2 C 5.82 g/m*3 23.2 C 8.1 km/h
178 08-04-2020 14:45:00 23.2 C 5.82 g/m*3 23.2 C 3.2 km/h
179 08-04-2020 14:50:00 23.3 C 5.85 g/m*3 23.3 C 6.4 km/h
180 08-04-2020 14:55:00 23.3 C 5.85 g/m*3 23.3 C 11.3 km/h
181 08-04-2020 15:00:00 23.4 C 5.89 g/m*3 23.4 C 9.7 km/h
182 08-04-2020 15:05:00 23.4 C 5.89 g/m*3 23.4 C 8.1 km/h
183 08-04-2020 15:10:00 23.2 C 7.28 g/m*3 23.2 C 6.4 km/h
184 08-04-2020 15:15:00 22.8 C 6.5 g/m*3 22.8 C 4.8 km/h
185 08-04-2020 15:20:00 22.8 C 6.1 g/m*3 22.8 C 9.7 km/h
186 08-04-2020 15:25:00 23 C 6.37 g/m*3 23 C 9.7 km/h
187 08-04-2020 15:30:00 22.9 C 6.13 g/m*3 22.9 C 16.1 km/h
188 08-04-2020 15:35:00 22.9 C 5.93 g/m*3 22.9 C 9.7 km/h
189 08-04-2020 15:40:00 23.1 C 5.99 g/m*3 23.1 C 8.1 km/h
190 08-04-2020 15:45:00 23.2 C 6.03 g/m*3 23.2 C 8.1 km/h
191 08-04-2020 15:50:00 23.2 C 6.24 g/m*3 23.2 C 6.4 km/h
192 08-04-2020 15:55:00 23.3 C 6.06 g/m*3 23.3 C 9.7 km/h
193 08-04-2020 16:00:00 23.4 C 5.89 g/m*3 23.4 C 8.1 km/h
194 08-04-2020 16:05:00 23.6 C 5.96 g/m*3 23.6 C 6.4 km/h
195 08-04-2020 16:10:00 23.6 C 5.74 g/m*3 23.6 C 9.7 km/h
196 08-04-2020 16:15:00 23.7 C 5.99 g/m*3 23.7 C 8.1 km/h
197 08-04-2020 16:20:00 23.7 C 5.78 g/m*3 23.7 C 3.2 km/h
198 08-04-2020 16:25:00 23.8 C 5.81 g/m*3 23.8 C 1.6 km/h
199 08-04-2020 16:30:00 24.1 C 6.35 g/m*3 24.1 C 6.4 km/h
200 08-04-2020 16:35:00 24.3 C 6.2 g/m*3 24.3 C 8.1 km/h
Sensor: Nr:Datum:Temp:Abs-Feuchte:Windchill:Wind:
Aussen-T/F 201 08-04-2020 16:40:00 24.6 C 6.08 g/m*3 24.6 C 6.4 km/h
202 08-04-2020 16:45:00 24.8 C 6.15 g/m*3 24.8 C 6.4 km/h
203 08-04-2020 16:50:00 25.2 C 6.29 g/m*3 25.2 C 6.4 km/h
204 08-04-2020 16:55:00 25.7 C 5.99 g/m*3 25.7 C 3.2 km/h
205 08-04-2020 17:00:00 25.7 C 5.75 g/m*3 25.7 C 6.4 km/h
206 08-04-2020 17:05:00 25.3 C 5.62 g/m*3 25.3 C 9.7 km/h
207 08-04-2020 17:10:00 25.2 C 5.82 g/m*3 25.2 C 9.7 km/h
208 08-04-2020 17:15:00 25.2 C 5.82 g/m*3 25.2 C 6.4 km/h
209 08-04-2020 17:20:00 25.2 C 5.59 g/m*3 25.2 C 8.1 km/h
210 08-04-2020 17:25:00 25.2 C 5.82 g/m*3 25.2 C 1.6 km/h
211 08-04-2020 17:30:00 25.2 C 5.59 g/m*3 25.2 C 8.1 km/h
212 08-04-2020 17:35:00 25.2 C 5.82 g/m*3 25.2 C 3.2 km/h
213 08-04-2020 17:40:00 25.5 C 6.16 g/m*3 25.5 C 4.8 km/h
214 08-04-2020 17:45:00 25.3 C 5.85 g/m*3 25.3 C 9.7 km/h
215 08-04-2020 17:50:00 25.2 C 6.29 g/m*3 25.2 C 6.4 km/h
216 08-04-2020 17:55:00 25.3 C 6.32 g/m*3 25.3 C 4.8 km/h
217 08-04-2020 18:00:00 25.3 C 6.09 g/m*3 25.3 C 4.8 km/h
218 08-04-2020 18:05:00 25.6 C 6.43 g/m*3 25.6 C 3.2 km/h
219 08-04-2020 18:10:00 25.7 C 6.22 g/m*3 25.7 C 6.4 km/h
220 08-04-2020 18:15:00 25.6 C 5.95 g/m*3 25.6 C 8.1 km/h
221 08-04-2020 18:20:00 25.6 C 6.43 g/m*3 25.6 C 4.8 km/h
222 08-04-2020 18:25:00 25.6 C 6.43 g/m*3 25.6 C 3.2 km/h
223 08-04-2020 18:30:00 25.4 C 6.12 g/m*3 25.4 C 6.4 km/h
224 08-04-2020 18:35:00 25.3 C 6.32 g/m*3 25.3 C 3.2 km/h
225 08-04-2020 18:40:00 25.2 C 6.29 g/m*3 25.2 C 3.2 km/h
Sensor: Nr:Datum:Temp:Abs-Feuchte:Windchill:Wind:
Aussen-T/F 226 08-04-2020 18:45:00 25.2 C 6.05 g/m*3 25.2 C 4.8 km/h
227 08-04-2020 18:50:00 25.1 C 6.02 g/m*3 25.1 C 3.2 km/h
228 08-04-2020 18:55:00 24.9 C 6.18 g/m*3 24.9 C 1.6 km/h
229 08-04-2020 19:00:00 24.8 C 6.15 g/m*3 24.8 C 3.2 km/h
230 08-04-2020 19:05:00 24.8 C 7.28 g/m*3 24.8 C 0 km/h
231 08-04-2020 19:10:00 24.9 C 7.32 g/m*3 24.9 C 0 km/h
232 08-04-2020 19:15:00 24.6 C 7.65 g/m*3 24.6 C 0 km/h
233 08-04-2020 19:20:00 24.2 C 7.26 g/m*3 24.2 C 0 km/h
234 08-04-2020 19:25:00 23.5 C 7.19 g/m*3 23.5 C 0 km/h
235 08-04-2020 19:30:00 22.9 C 7.36 g/m*3 22.9 C 1.6 km/h
236 08-04-2020 19:35:00 22.3 C 7.11 g/m*3 22.3 C 4.8 km/h
237 08-04-2020 19:40:00 21.7 C 7.25 g/m*3 21.7 C 4.8 km/h
238 08-04-2020 19:45:00 21.1 C 7.37 g/m*3 21.1 C 4.8 km/h
239 08-04-2020 19:50:00 20.6 C 7.16 g/m*3 20.6 C 4.8 km/h
240 08-04-2020 19:55:00 20.1 C 7.13 g/m*3 20.1 C 6.4 km/h
241 08-04-2020 20:00:00 19.6 C 7.09 g/m*3 19.6 C 4.8 km/h
242 08-04-2020 20:05:00 19.1 C 7.05 g/m*3 19.1 C 4.8 km/h
243 08-04-2020 20:10:00 18.7 C 7.04 g/m*3 18.7 C 4.8 km/h
244 08-04-2020 20:15:00 18.3 C 7.04 g/m*3 18.3 C 6.4 km/h
245 08-04-2020 20:20:00 17.9 C 7.02 g/m*3 17.9 C 4.8 km/h
246 08-04-2020 20:25:00 17.7 C 6.94 g/m*3 17.7 C 6.4 km/h
247 08-04-2020 20:30:00 17.4 C 6.97 g/m*3 17.4 C 6.4 km/h
248 08-04-2020 20:35:00 17.1 C 6.99 g/m*3 17.1 C 4.8 km/h
249 08-04-2020 20:40:00 16.8 C 7.01 g/m*3 16.8 C 4.8 km/h
250 08-04-2020 20:45:00 16.4 C 6.84 g/m*3 16.4 C 4.8 km/h
Sensor: Nr:Datum:Temp:Abs-Feuchte:Windchill:Wind:
Aussen-T/F 251 08-04-2020 20:50:00 16.2 C 7.03 g/m*3 16.2 C 1.6 km/h
252 08-04-2020 20:55:00 16 C 7.08 g/m*3 16 C 4.8 km/h
253 08-04-2020 21:00:00 15.8 C 6.87 g/m*3 15.8 C 1.6 km/h
254 08-04-2020 21:05:00 15.6 C 6.92 g/m*3 15.6 C 1.6 km/h
255 08-04-2020 21:10:00 15.4 C 7.09 g/m*3 15.4 C 3.2 km/h
256 08-04-2020 21:15:00 15.1 C 6.84 g/m*3 15.1 C 4.8 km/h
257 08-04-2020 21:20:00 14.8 C 6.84 g/m*3 14.8 C 4.8 km/h
258 08-04-2020 21:25:00 14.7 C 7.18 g/m*3 14.7 C 0 km/h
259 08-04-2020 21:30:00 14.3 C 6.88 g/m*3 14.3 C 1.6 km/h
260 08-04-2020 21:35:00 14.2 C 6.84 g/m*3 14.2 C 4.8 km/h
261 08-04-2020 21:40:00 14.2 C 7.08 g/m*3 14.2 C 3.2 km/h
262 08-04-2020 21:45:00 14.1 C 7.16 g/m*3 14.1 C 1.6 km/h
263 08-04-2020 21:50:00 13.9 C 7.07 g/m*3 13.9 C 1.6 km/h
264 08-04-2020 21:55:00 13.7 C 7.1 g/m*3 13.7 C 0 km/h
265 08-04-2020 22:00:00 13.5 C 6.9 g/m*3 13.5 C 0 km/h
266 08-04-2020 22:05:00 13.3 C 6.93 g/m*3 13.3 C 0 km/h
267 08-04-2020 22:10:00 13.1 C 6.85 g/m*3 13.1 C 0 km/h
268 08-04-2020 22:15:00 12.9 C 6.76 g/m*3 12.9 C 0 km/h
269 08-04-2020 22:20:00 12.8 C 6.94 g/m*3 12.8 C 3.2 km/h
270 08-04-2020 22:25:00 12.7 C 7.01 g/m*3 12.7 C 0 km/h
271 08-04-2020 22:30:00 12.7 C 7.12 g/m*3 12.7 C 0 km/h
272 08-04-2020 22:35:00 12.6 C 6.97 g/m*3 12.6 C 0 km/h
273 08-04-2020 22:40:00 12.6 C 7.08 g/m*3 12.6 C 0 km/h
274 08-04-2020 22:45:00 12.3 C 7.06 g/m*3 12.3 C 0 km/h
275 08-04-2020 22:50:00 12.1 C 7.08 g/m*3 12.1 C 0 km/h
Sensor: Nr:Datum:Temp:Abs-Feuchte:Windchill:Wind:
Aussen-T/F 276 08-04-2020 22:55:00 11.9 C 6.99 g/m*3 11.9 C 0 km/h
277 08-04-2020 23:00:00 12 C 6.82 g/m*3 12 C 0 km/h
278 08-04-2020 23:05:00 12.2 C 6.91 g/m*3 12.2 C 1.6 km/h
279 08-04-2020 23:10:00 12.2 C 7.01 g/m*3 12.2 C 0 km/h
280 08-04-2020 23:15:00 12.1 C 6.97 g/m*3 12.1 C 0 km/h
281 08-04-2020 23:20:00 11.8 C 6.95 g/m*3 11.8 C 0 km/h
282 08-04-2020 23:25:00 11.6 C 6.96 g/m*3 11.6 C 0 km/h
283 08-04-2020 23:30:00 11.3 C 6.94 g/m*3 11.3 C 0 km/h
284 08-04-2020 23:35:00 11.2 C 6.99 g/m*3 11.2 C 1.6 km/h
285 08-04-2020 23:40:00 11.1 C 6.85 g/m*3 11.1 C 1.6 km/h
286 08-04-2020 23:45:00 11.2 C 6.89 g/m*3 11.2 C 0 km/h
287 08-04-2020 23:50:00 11.5 C 7.02 g/m*3 11.5 C 1.6 km/h
288 08-04-2020 23:55:00 11.7 C 7.01 g/m*3 11.7 C 1.6 km/h
289 09-04-2020 00:00:00 11.7 C 7.01 g/m*3 11.7 C 0 km/h
290 09-04-2020 00:05:00 11.6 C 7.07 g/m*3 11.6 C 0 km/h
291 09-04-2020 00:10:00 11.5 C 6.92 g/m*3 11.5 C 0 km/h
292 09-04-2020 00:15:00 11.6 C 6.96 g/m*3 11.6 C 1.6 km/h
293 09-04-2020 00:20:00 11.7 C 7.01 g/m*3 11.7 C 0 km/h
294 09-04-2020 00:25:00 11.6 C 7.07 g/m*3 11.6 C 0 km/h
295 09-04-2020 00:30:00 11.3 C 6.94 g/m*3 11.3 C 0 km/h
296 09-04-2020 00:35:00 11.1 C 6.95 g/m*3 11.1 C 0 km/h
297 09-04-2020 00:40:00 11.2 C 6.89 g/m*3 11.2 C 4.8 km/h
298 09-04-2020 00:45:00 11.2 C 6.99 g/m*3 11.2 C 3.2 km/h
299 09-04-2020 00:50:00 11.2 C 6.99 g/m*3 11.2 C 1.6 km/h
300 09-04-2020 00:55:00 11.1 C 7.05 g/m*3 11.1 C 0 km/h
Sensor: Nr:Datum:Temp:Abs-Feuchte:Windchill:Wind:
Aussen-T/F 301 09-04-2020 01:00:00 11.1 C 7.05 g/m*3 11.1 C 0 km/h
302 09-04-2020 01:05:00 10.9 C 7.06 g/m*3 10.9 C 0 km/h
303 09-04-2020 01:10:00 10.8 C 7.02 g/m*3 10.8 C 0 km/h
304 09-04-2020 01:15:00 10.6 C 6.93 g/m*3 10.6 C 0 km/h
305 09-04-2020 01:20:00 10.3 C 6.9 g/m*3 10.3 C 0 km/h
306 09-04-2020 01:25:00 10.1 C 6.9 g/m*3 10.1 C 4.8 km/h
307 09-04-2020 01:30:00 10 C 6.95 g/m*3 10 C 4.8 km/h
308 09-04-2020 01:35:00 10.1 C 7.19 g/m*3 10.1 C 0 km/h
309 09-04-2020 01:40:00 10.1 C 7.19 g/m*3 10.1 C 3.2 km/h
310 09-04-2020 01:45:00 10 C 7.14 g/m*3 10 C 1.6 km/h
311 09-04-2020 01:50:00 10 C 7.24 g/m*3 10 C 1.6 km/h
312 09-04-2020 01:55:00 10 C 7.24 g/m*3 10 C 0 km/h
313 09-04-2020 02:00:00 9.8 C 7.05 g/m*3 9.8 C 0 km/h
314 09-04-2020 02:05:00 9.7 C 7.01 g/m*3 9.7 C 0 km/h
315 09-04-2020 02:10:00 9.6 C 6.96 g/m*3 9.6 C 0 km/h
316 09-04-2020 02:15:00 9.5 C 7.01 g/m*3 9.5 C 0 km/h
317 09-04-2020 02:20:00 9.4 C 6.96 g/m*3 9.4 C 0 km/h
318 09-04-2020 02:25:00 9.4 C 7.05 g/m*3 9.4 C 0 km/h
319 09-04-2020 02:30:00 9.3 C 7.01 g/m*3 9.3 C 0 km/h
320 09-04-2020 02:35:00 9.3 C 7.1 g/m*3 9.3 C 0 km/h
321 09-04-2020 02:40:00 9.2 C 6.97 g/m*3 9.2 C 0 km/h
322 09-04-2020 02:45:00 9.2 C 6.97 g/m*3 9.2 C 0 km/h
323 09-04-2020 02:50:00 9.2 C 7.05 g/m*3 9.2 C 0 km/h
324 09-04-2020 02:55:00 9.3 C 7.01 g/m*3 9.3 C 0 km/h
325 09-04-2020 03:00:00 9.4 C 7.05 g/m*3 9.4 C 0 km/h
Sensor: Nr:Datum:Temp:Abs-Feuchte:Windchill:Wind:
Aussen-T/F 326 09-04-2020 03:05:00 9.5 C 7.1 g/m*3 9.5 C 0 km/h
327 09-04-2020 03:10:00 9.6 C 7.15 g/m*3 9.6 C 4.8 km/h
328 09-04-2020 03:15:00 9.7 C 7.1 g/m*3 9.7 C 3.2 km/h
329 09-04-2020 03:20:00 9.7 C 7.1 g/m*3 9.7 C 3.2 km/h
330 09-04-2020 03:25:00 9.7 C 7.19 g/m*3 9.7 C 0 km/h
331 09-04-2020 03:30:00 9.7 C 7.19 g/m*3 9.7 C 0 km/h
332 09-04-2020 03:35:00 9.7 C 7.19 g/m*3 9.7 C 0 km/h
333 09-04-2020 03:40:00 9.7 C 7.19 g/m*3 9.7 C 3.2 km/h
334 09-04-2020 03:45:00 9.8 C 7.33 g/m*3 8.75 C 8.1 km/h
335 09-04-2020 03:50:00 9.8 C 7.14 g/m*3 9.8 C 3.2 km/h
336 09-04-2020 03:55:00 9.9 C 7.19 g/m*3 9.9 C 1.6 km/h
337 09-04-2020 04:00:00 10 C 7.33 g/m*3 10 C 0 km/h
338 09-04-2020 04:05:00 10.1 C 7.38 g/m*3 10.1 C 0 km/h
339 09-04-2020 04:10:00 10.1 C 7.38 g/m*3 10.1 C 3.2 km/h
340 09-04-2020 04:15:00 10.1 C 7.38 g/m*3 9.48 C 6.4 km/h
341 09-04-2020 04:20:00 10.2 C 7.42 g/m*3 9.22 C 8.1 km/h
342 09-04-2020 04:25:00 10.2 C 7.42 g/m*3 9.6 C 6.4 km/h
343 09-04-2020 04:30:00 10.1 C 7.38 g/m*3 9.48 C 6.4 km/h
344 09-04-2020 04:35:00 10 C 7.33 g/m*3 10 C 4.8 km/h
345 09-04-2020 04:40:00 9.9 C 7.38 g/m*3 9.9 C 1.6 km/h
346 09-04-2020 04:45:00 9.8 C 7.33 g/m*3 9.8 C 0 km/h
347 09-04-2020 04:50:00 9.7 C 7.28 g/m*3 9.7 C 0 km/h
348 09-04-2020 04:55:00 9.6 C 7.24 g/m*3 9.6 C 0 km/h
349 09-04-2020 05:00:00 9.4 C 7.15 g/m*3 9.4 C 0 km/h
350 09-04-2020 05:05:00 9.4 C 7.15 g/m*3 9.4 C 0 km/h
Sensor: Nr:Datum:Temp:Abs-Feuchte:Windchill:Wind:
Aussen-T/F 351 09-04-2020 05:10:00 9.3 C 7.19 g/m*3 9.3 C 0 km/h
352 09-04-2020 05:15:00 9.2 C 7.14 g/m*3 9.2 C 0 km/h
353 09-04-2020 05:20:00 9.2 C 7.14 g/m*3 9.2 C 0 km/h
354 09-04-2020 05:25:00 9.2 C 7.14 g/m*3 9.2 C 0 km/h
355 09-04-2020 05:30:00 9.1 C 7.1 g/m*3 9.1 C 0 km/h
356 09-04-2020 05:35:00 9 C 7.14 g/m*3 9 C 0 km/h
357 09-04-2020 05:40:00 8.9 C 7.18 g/m*3 8.9 C 0 km/h
358 09-04-2020 05:45:00 8.8 C 7.14 g/m*3 8.8 C 0 km/h
359 09-04-2020 05:50:00 8.7 C 7.09 g/m*3 8.7 C 0 km/h
360 09-04-2020 05:55:00 8.6 C 7.13 g/m*3 8.6 C 0 km/h
361 09-04-2020 06:00:00 8.6 C 7.13 g/m*3 8.6 C 0 km/h
362 09-04-2020 06:05:00 8.5 C 7.09 g/m*3 8.5 C 0 km/h
363 09-04-2020 06:10:00 8.4 C 7.04 g/m*3 8.4 C 0 km/h
364 09-04-2020 06:15:00 8.3 C 7 g/m*3 8.3 C 0 km/h
365 09-04-2020 06:20:00 8.1 C 6.91 g/m*3 8.1 C 0 km/h
366 09-04-2020 06:25:00 7.9 C 6.82 g/m*3 7.9 C 0 km/h
367 09-04-2020 06:30:00 7.8 C 6.86 g/m*3 7.8 C 0 km/h
368 09-04-2020 06:35:00 7.7 C 6.81 g/m*3 7.7 C 0 km/h
369 09-04-2020 06:40:00 7.6 C 6.77 g/m*3 7.6 C 0 km/h
370 09-04-2020 06:45:00 7.4 C 6.76 g/m*3 7.4 C 0 km/h
371 09-04-2020 06:50:00 7.3 C 6.72 g/m*3 7.3 C 0 km/h
372 09-04-2020 06:55:00 7.3 C 6.79 g/m*3 7.3 C 0 km/h
373 09-04-2020 07:00:00 7.3 C 6.79 g/m*3 7.3 C 0 km/h
374 09-04-2020 07:05:00 7.3 C 6.79 g/m*3 7.3 C 0 km/h
375 09-04-2020 07:10:00 7.4 C 6.92 g/m*3 7.4 C 0 km/h
Sensor: Nr:Datum:Temp:Abs-Feuchte:Windchill:Wind:
Aussen-T/F 376 09-04-2020 07:15:00 7.5 C 6.96 g/m*3 7.5 C 0 km/h
377 09-04-2020 07:20:00 7.7 C 7.05 g/m*3 7.7 C 0 km/h
378 09-04-2020 07:25:00 7.7 C 6.97 g/m*3 7.7 C 0 km/h
379 09-04-2020 07:30:00 7.7 C 6.97 g/m*3 7.7 C 0 km/h
380 09-04-2020 07:35:00 7.7 C 6.97 g/m*3 7.7 C 0 km/h
381 09-04-2020 07:40:00 7.6 C 6.93 g/m*3 7.6 C 0 km/h
382 09-04-2020 07:45:00 7.6 C 6.93 g/m*3 7.6 C 0 km/h
383 09-04-2020 07:50:00 7.6 C 7.01 g/m*3 7.6 C 0 km/h
384 09-04-2020 07:55:00 7.6 C 7.01 g/m*3 7.6 C 0 km/h
385 09-04-2020 08:00:00 7.6 C 7.01 g/m*3 7.6 C 0 km/h
386 09-04-2020 08:05:00 7.6 C 7.01 g/m*3 7.6 C 0 km/h
387 09-04-2020 08:10:00 7.7 C 7.14 g/m*3 7.7 C 1.6 km/h
388 09-04-2020 08:15:00 7.7 C 7.14 g/m*3 7.7 C 0 km/h
389 09-04-2020 08:20:00 7.8 C 7.18 g/m*3 7.8 C 0 km/h
390 09-04-2020 08:25:00 7.8 C 7.18 g/m*3 7.8 C 0 km/h
391 09-04-2020 08:30:00 7.9 C 7.23 g/m*3 7.9 C 0 km/h
392 09-04-2020 08:35:00 7.9 C 7.23 g/m*3 7.9 C 0 km/h
393 09-04-2020 08:40:00 8.1 C 7.32 g/m*3 8.1 C 0 km/h
394 09-04-2020 08:45:00 8.2 C 7.37 g/m*3 8.2 C 0 km/h
395 09-04-2020 08:50:00 8.3 C 7.42 g/m*3 8.3 C 0 km/h
396 09-04-2020 08:55:00 8.4 C 7.38 g/m*3 8.4 C 0 km/h
397 09-04-2020 09:00:00 8.6 C 7.56 g/m*3 8.6 C 0 km/h
398 09-04-2020 09:05:00 8.7 C 7.52 g/m*3 8.7 C 0 km/h
399 09-04-2020 09:10:00 8.8 C 7.57 g/m*3 8.8 C 0 km/h
400 09-04-2020 09:15:00 8.9 C 7.62 g/m*3 8.9 C 0 km/h
Sensor: Nr:Datum:Temp:Abs-Feuchte:Windchill:Wind:
Aussen-T/F 401 09-04-2020 09:20:00 9 C 7.67 g/m*3 9 C 0 km/h
402 09-04-2020 09:25:00 9.1 C 7.72 g/m*3 9.1 C 0 km/h
403 09-04-2020 09:30:00 9.2 C 7.77 g/m*3 9.2 C 0 km/h
404 09-04-2020 09:35:00 9.4 C 7.87 g/m*3 9.4 C 0 km/h
405 09-04-2020 09:40:00 9.6 C 7.97 g/m*3 9.6 C 0 km/h
406 09-04-2020 09:45:00 9.8 C 8.07 g/m*3 9.8 C 0 km/h
407 09-04-2020 09:50:00 9.9 C 8.12 g/m*3 9.9 C 0 km/h
408 09-04-2020 09:55:00 10.1 C 8.13 g/m*3 10.1 C 0 km/h
409 09-04-2020 10:00:00 10.3 C 8.24 g/m*3 10.3 C 0 km/h
410 09-04-2020 10:05:00 10.5 C 8.34 g/m*3 10.5 C 0 km/h
411 09-04-2020 10:10:00 10.7 C 8.35 g/m*3 10.7 C 0 km/h
412 09-04-2020 10:15:00 10.9 C 8.26 g/m*3 10.9 C 0 km/h
413 09-04-2020 10:20:00 11.2 C 8.41 g/m*3 11.2 C 0 km/h
414 09-04-2020 10:25:00 11.6 C 8.52 g/m*3 11.6 C 0 km/h
415 09-04-2020 10:30:00 11.8 C 8.53 g/m*3 11.8 C 0 km/h
416 09-04-2020 10:35:00 12.2 C 8.63 g/m*3 12.2 C 0 km/h
417 09-04-2020 10:40:00 12.5 C 8.58 g/m*3 12.5 C 0 km/h
418 09-04-2020 10:45:00 12.8 C 8.74 g/m*3 12.8 C 0 km/h
419 09-04-2020 10:50:00 13.2 C 8.84 g/m*3 13.2 C 0 km/h
420 09-04-2020 10:55:00 13.6 C 9.06 g/m*3 13.6 C 0 km/h
421 09-04-2020 11:00:00 14 C 8.93 g/m*3 14 C 0 km/h
422 09-04-2020 11:05:00 14.4 C 8.65 g/m*3 14.4 C 0 km/h
423 09-04-2020 11:10:00 14.9 C 8.92 g/m*3 14.9 C 0 km/h
424 09-04-2020 11:15:00 15.4 C 9.07 g/m*3 15.4 C 0 km/h
425 09-04-2020 11:20:00 15.8 C 8.88 g/m*3 15.8 C 0 km/h
Sensor: Nr:Datum:Temp:Abs-Feuchte:Windchill:Wind:
Aussen-T/F 426 09-04-2020 11:25:00 16.3 C 8.74 g/m*3 16.3 C 1.6 km/h
427 09-04-2020 11:30:00 16.7 C 8.95 g/m*3 16.7 C 0 km/h
428 09-04-2020 11:35:00 17.1 C 8.73 g/m*3 17.1 C 0 km/h
429 09-04-2020 11:40:00 17.4 C 8.89 g/m*3 17.4 C 1.6 km/h
430 09-04-2020 11:45:00 17.7 C 8.9 g/m*3 17.7 C 0 km/h
431 09-04-2020 11:50:00 18.1 C 8.65 g/m*3 18.1 C 0 km/h
432 09-04-2020 11:55:00 18.3 C 8.91 g/m*3 18.3 C 1.6 km/h
433 09-04-2020 12:00:00 18.6 C 8.91 g/m*3 18.6 C 4.8 km/h
434 09-04-2020 12:05:00 18.8 C 8.86 g/m*3 18.8 C 3.2 km/h
435 09-04-2020 12:10:00 19.1 C 8.69 g/m*3 19.1 C 3.2 km/h
436 09-04-2020 12:15:00 19.3 C 8.79 g/m*3 19.3 C 3.2 km/h
437 09-04-2020 12:20:00 19.6 C 8.95 g/m*3 19.6 C 0 km/h
438 09-04-2020 12:25:00 19.8 C 9.05 g/m*3 19.8 C 1.6 km/h
439 09-04-2020 12:30:00 20.1 C 9.21 g/m*3 20.1 C 1.6 km/h
440 09-04-2020 12:35:00 20.3 C 8.97 g/m*3 20.3 C 0 km/h
441 09-04-2020 12:40:00 20.6 C 8.95 g/m*3 20.6 C 1.6 km/h
442 09-04-2020 12:45:00 20.8 C 8.69 g/m*3 20.8 C 1.6 km/h
443 09-04-2020 12:50:00 21 C 8.98 g/m*3 21 C 3.2 km/h
444 09-04-2020 12:55:00 21.2 C 9.08 g/m*3 21.2 C 1.6 km/h
445 09-04-2020 13:00:00 21.3 C 8.76 g/m*3 21.3 C 3.2 km/h
446 09-04-2020 13:05:00 21.3 C 8.95 g/m*3 21.3 C 4.8 km/h
447 09-04-2020 13:10:00 21.4 C 8.62 g/m*3 21.4 C 3.2 km/h
448 09-04-2020 13:15:00 21.6 C 8.53 g/m*3 21.6 C 0 km/h
449 09-04-2020 13:20:00 21.7 C 8.77 g/m*3 21.7 C 4.8 km/h
450 09-04-2020 13:25:00 21.8 C 8.83 g/m*3 21.8 C 4.8 km/h
Sensor: Nr:Datum:Temp:Abs-Feuchte:Windchill:Wind:
Aussen-T/F 451 09-04-2020 13:30:00 21.9 C 8.49 g/m*3 21.9 C 8.1 km/h
452 09-04-2020 13:35:00 22.1 C 8.78 g/m*3 22.1 C 3.2 km/h
453 09-04-2020 13:40:00 22.1 C 8 g/m*3 22.1 C 4.8 km/h
454 09-04-2020 13:45:00 22.1 C 7.61 g/m*3 22.1 C 12.9 km/h
455 09-04-2020 13:50:00 22.3 C 7.11 g/m*3 22.3 C 8.1 km/h
456 09-04-2020 13:55:00 22.3 C 7.5 g/m*3 22.3 C 9.7 km/h
457 09-04-2020 14:00:00 22.5 C 7.59 g/m*3 22.5 C 6.4 km/h
458 09-04-2020 14:05:00 22.6 C 7.23 g/m*3 22.6 C 4.8 km/h
459 09-04-2020 14:10:00 22.6 C 7.23 g/m*3 22.6 C 6.4 km/h
460 09-04-2020 14:15:00 22.7 C 7.27 g/m*3 22.7 C 4.8 km/h
461 09-04-2020 14:20:00 22.8 C 6.91 g/m*3 22.8 C 6.4 km/h
462 09-04-2020 14:25:00 23.1 C 7.03 g/m*3 23.1 C 8.1 km/h
463 09-04-2020 14:30:00 23.2 C 7.07 g/m*3 23.2 C 6.4 km/h
464 09-04-2020 14:35:00 23.3 C 7.11 g/m*3 23.3 C 8.1 km/h
465 09-04-2020 14:40:00 23.4 C 7.15 g/m*3 23.4 C 8.1 km/h
466 09-04-2020 14:45:00 23.5 C 7.4 g/m*3 23.5 C 6.4 km/h
467 09-04-2020 14:50:00 23.7 C 7.7 g/m*3 23.7 C 8.1 km/h
468 09-04-2020 14:55:00 23.7 C 7.49 g/m*3 23.7 C 8.1 km/h
469 09-04-2020 15:00:00 23.7 C 7.27 g/m*3 23.7 C 14.5 km/h
470 09-04-2020 15:05:00 23.7 C 7.27 g/m*3 23.7 C 12.9 km/h
471 09-04-2020 15:10:00 23.7 C 7.06 g/m*3 23.7 C 8.1 km/h
472 09-04-2020 15:15:00 23.7 C 7.06 g/m*3 23.7 C 12.9 km/h
473 09-04-2020 15:20:00 23.7 C 7.27 g/m*3 23.7 C 12.9 km/h
474 09-04-2020 15:25:00 23.6 C 7.23 g/m*3 23.6 C 12.9 km/h
475 09-04-2020 15:30:00 23.6 C 7.23 g/m*3 23.6 C 9.7 km/h
Sensor: Nr:Datum:Temp:Abs-Feuchte:Windchill:Wind:
Aussen-T/F 476 09-04-2020 15:35:00 23.7 C 7.7 g/m*3 23.7 C 6.4 km/h
477 09-04-2020 15:40:00 23.8 C 7.31 g/m*3 23.8 C 11.3 km/h
478 09-04-2020 15:45:00 23.8 C 7.53 g/m*3 23.8 C 14.5 km/h
479 09-04-2020 15:50:00 23.8 C 7.53 g/m*3 23.8 C 9.7 km/h
480 09-04-2020 15:55:00 23.8 C 7.31 g/m*3 23.8 C 11.3 km/h
481 09-04-2020 16:00:00 23.8 C 7.1 g/m*3 23.8 C 6.4 km/h
482 09-04-2020 16:05:00 23.8 C 7.31 g/m*3 23.8 C 12.9 km/h
483 09-04-2020 16:10:00 23.9 C 7.36 g/m*3 23.9 C 11.3 km/h
484 09-04-2020 16:15:00 24.1 C 7.44 g/m*3 24.1 C 6.4 km/h
485 09-04-2020 16:20:00 24.2 C 7.48 g/m*3 24.2 C 9.7 km/h
486 09-04-2020 16:25:00 24.3 C 7.52 g/m*3 24.3 C 16.1 km/h
487 09-04-2020 16:30:00 24.3 C 7.3 g/m*3 24.3 C 16.1 km/h
488 09-04-2020 16:35:00 24.3 C 7.3 g/m*3 24.3 C 9.7 km/h
489 09-04-2020 16:40:00 24.6 C 7.88 g/m*3 24.6 C 11.3 km/h
490 09-04-2020 16:45:00 24.7 C 7.47 g/m*3 24.7 C 14.5 km/h
491 09-04-2020 16:50:00 24.7 C 7.7 g/m*3 24.7 C 11.3 km/h
492 09-04-2020 16:55:00 24.9 C 7.78 g/m*3 24.9 C 9.7 km/h
493 09-04-2020 17:00:00 24.9 C 7.78 g/m*3 24.9 C 12.9 km/h
494 09-04-2020 17:05:00 24.8 C 7.51 g/m*3 24.8 C 12.9 km/h
495 09-04-2020 17:10:00 24.7 C 7.47 g/m*3 24.7 C 11.3 km/h
496 09-04-2020 17:15:00 24.8 C 7.51 g/m*3 24.8 C 8.1 km/h
497 09-04-2020 17:20:00 24.8 C 7.28 g/m*3 24.8 C 9.7 km/h
498 09-04-2020 17:25:00 24.8 C 7.51 g/m*3 24.8 C 11.3 km/h
499 09-04-2020 17:30:00 24.8 C 7.28 g/m*3 24.8 C 8.1 km/h
500 09-04-2020 17:35:00 24.7 C 7.24 g/m*3 24.7 C 11.3 km/h
Sensor: Nr:Datum:Temp:Abs-Feuchte:Windchill:Wind:
Aussen-T/F 501 09-04-2020 17:40:00 24.7 C 7.7 g/m*3 24.7 C 12.9 km/h
502 09-04-2020 17:45:00 24.6 C 7.43 g/m*3 24.6 C 14.5 km/h
503 09-04-2020 17:50:00 24.4 C 7.57 g/m*3 24.4 C 11.3 km/h
504 09-04-2020 17:55:00 24.4 C 7.57 g/m*3 24.4 C 11.3 km/h
505 09-04-2020 18:00:00 24.6 C 7.88 g/m*3 24.6 C 8.1 km/h
506 09-04-2020 18:05:00 24.6 C 7.65 g/m*3 24.6 C 9.7 km/h
507 09-04-2020 18:10:00 24.4 C 7.57 g/m*3 24.4 C 14.5 km/h
508 09-04-2020 18:15:00 24.2 C 7.7 g/m*3 24.2 C 9.7 km/h
509 09-04-2020 18:20:00 24.2 C 7.7 g/m*3 24.2 C 12.9 km/h
510 09-04-2020 18:25:00 24.1 C 7.66 g/m*3 24.1 C 11.3 km/h
511 09-04-2020 18:30:00 23.9 C 8 g/m*3 23.9 C 14.5 km/h
512 09-04-2020 18:35:00 23.7 C 7.91 g/m*3 23.7 C 12.9 km/h
513 09-04-2020 18:40:00 23.7 C 7.91 g/m*3 23.7 C 11.3 km/h
514 09-04-2020 18:45:00 23.7 C 7.7 g/m*3 23.7 C 14.5 km/h
515 09-04-2020 18:50:00 23.6 C 7.87 g/m*3 23.6 C 11.3 km/h
516 09-04-2020 18:55:00 23.4 C 7.57 g/m*3 23.4 C 8.1 km/h
517 09-04-2020 19:00:00 23.3 C 7.74 g/m*3 23.3 C 8.1 km/h
518 09-04-2020 19:05:00 23.4 C 7.99 g/m*3 23.4 C 8.1 km/h
519 09-04-2020 19:10:00 23.3 C 7.95 g/m*3 23.3 C 9.7 km/h
520 09-04-2020 19:15:00 23.2 C 7.9 g/m*3 23.2 C 3.2 km/h
521 09-04-2020 19:20:00 22.9 C 7.77 g/m*3 22.9 C 9.7 km/h
522 09-04-2020 19:25:00 22.6 C 7.83 g/m*3 22.6 C 6.4 km/h
523 09-04-2020 19:30:00 22.2 C 8.25 g/m*3 22.2 C 8.1 km/h
524 09-04-2020 19:35:00 21.9 C 8.3 g/m*3 21.9 C 8.1 km/h
525 09-04-2020 19:40:00 21.6 C 8.16 g/m*3 21.6 C 8.1 km/h
Sensor: Nr:Datum:Temp:Abs-Feuchte:Windchill:Wind:
Aussen-T/F 526 09-04-2020 19:45:00 21.3 C 8.02 g/m*3 21.3 C 6.4 km/h
527 09-04-2020 19:50:00 21.1 C 7.92 g/m*3 21.1 C 8.1 km/h
528 09-04-2020 19:55:00 20.9 C 8.01 g/m*3 20.9 C 6.4 km/h
529 09-04-2020 20:00:00 20.7 C 7.92 g/m*3 20.7 C 4.8 km/h
530 09-04-2020 20:05:00 20.4 C 8.49 g/m*3 20.4 C 1.6 km/h
531 09-04-2020 20:10:00 19.9 C 8.25 g/m*3 19.9 C 0 km/h
532 09-04-2020 20:15:00 19.3 C 8.46 g/m*3 19.3 C 1.6 km/h
533 09-04-2020 20:20:00 18.7 C 8.49 g/m*3 18.7 C 4.8 km/h
534 09-04-2020 20:25:00 18.2 C 8.39 g/m*3 18.2 C 4.8 km/h
535 09-04-2020 20:30:00 17.8 C 8.5 g/m*3 17.8 C 3.2 km/h
536 09-04-2020 20:35:00 17.4 C 8.45 g/m*3 17.4 C 3.2 km/h
537 09-04-2020 20:40:00 17.2 C 8.35 g/m*3 17.2 C 3.2 km/h
538 09-04-2020 20:45:00 16.9 C 8.49 g/m*3 16.9 C 4.8 km/h
539 09-04-2020 20:50:00 16.7 C 8.38 g/m*3 16.7 C 4.8 km/h
540 09-04-2020 20:55:00 16.4 C 8.37 g/m*3 16.4 C 0 km/h
541 09-04-2020 21:00:00 16.2 C 8.41 g/m*3 16.2 C 3.2 km/h
542 09-04-2020 21:05:00 16 C 8.31 g/m*3 16 C 1.6 km/h
543 09-04-2020 21:10:00 16.1 C 8.36 g/m*3 16.1 C 1.6 km/h
544 09-04-2020 21:15:00 16.2 C 8.27 g/m*3 16.2 C 3.2 km/h
545 09-04-2020 21:20:00 16.3 C 8.32 g/m*3 16.3 C 4.8 km/h
546 09-04-2020 21:25:00 16.3 C 8.32 g/m*3 16.3 C 3.2 km/h
547 09-04-2020 21:30:00 16.2 C 8.41 g/m*3 16.2 C 1.6 km/h
548 09-04-2020 21:35:00 16 C 8.31 g/m*3 16 C 0 km/h
549 09-04-2020 21:40:00 15.8 C 8.35 g/m*3 15.8 C 3.2 km/h
550 09-04-2020 21:45:00 15.6 C 8.25 g/m*3 15.6 C 1.6 km/h
Sensor: Nr:Datum:Temp:Abs-Feuchte:Windchill:Wind:
Aussen-T/F 551 09-04-2020 21:50:00 15.4 C 8.28 g/m*3 15.4 C 3.2 km/h
552 09-04-2020 21:55:00 15.2 C 8.31 g/m*3 15.2 C 0 km/h
553 09-04-2020 22:00:00 15.1 C 8.26 g/m*3 15.1 C 3.2 km/h
554 09-04-2020 22:05:00 15 C 8.21 g/m*3 15 C 1.6 km/h
555 09-04-2020 22:10:00 14.9 C 8.28 g/m*3 14.9 C 4.8 km/h
556 09-04-2020 22:15:00 14.9 C 8.28 g/m*3 14.9 C 3.2 km/h
557 09-04-2020 22:20:00 15 C 8.33 g/m*3 15 C 3.2 km/h
558 09-04-2020 22:25:00 14.9 C 8.28 g/m*3 14.9 C 3.2 km/h
559 09-04-2020 22:30:00 14.8 C 8.23 g/m*3 14.8 C 3.2 km/h
560 09-04-2020 22:35:00 14.7 C 8.31 g/m*3 14.7 C 3.2 km/h
561 09-04-2020 22:40:00 14.6 C 8.26 g/m*3 14.6 C 4.8 km/h
562 09-04-2020 22:45:00 14.4 C 8.28 g/m*3 14.4 C 3.2 km/h
563 09-04-2020 22:50:00 14.3 C 8.23 g/m*3 14.3 C 1.6 km/h
564 09-04-2020 22:55:00 14.2 C 8.3 g/m*3 14.2 C 6.4 km/h
565 09-04-2020 23:00:00 14.1 C 8.25 g/m*3 14.1 C 0 km/h
566 09-04-2020 23:05:00 13.9 C 8.15 g/m*3 13.9 C 1.6 km/h
567 09-04-2020 23:10:00 13.8 C 8.22 g/m*3 13.8 C 1.6 km/h
568 09-04-2020 23:15:00 13.8 C 8.22 g/m*3 13.8 C 3.2 km/h
569 09-04-2020 23:20:00 13.7 C 8.17 g/m*3 13.7 C 3.2 km/h
570 09-04-2020 23:25:00 13.6 C 8.12 g/m*3 13.6 C 0 km/h
571 09-04-2020 23:30:00 13.4 C 8.14 g/m*3 13.4 C 3.2 km/h
572 09-04-2020 23:35:00 13.3 C 8.09 g/m*3 13.3 C 3.2 km/h
573 09-04-2020 23:40:00 13.3 C 8.2 g/m*3 13.3 C 1.6 km/h
574 09-04-2020 23:45:00 13.2 C 8.15 g/m*3 13.2 C 4.8 km/h
575 09-04-2020 23:50:00 13.1 C 8.1 g/m*3 13.1 C 4.8 km/h
Sensor: Nr:Datum:Temp:Abs-Feuchte:Windchill:Wind:
Aussen-T/F 576 09-04-2020 23:55:00 12.9 C 8.11 g/m*3 12.9 C 4.8 km/h
577 10-04-2020 00:00:00 12.8 C 8.18 g/m*3 12.8 C 3.2 km/h
578 10-04-2020 00:05:00 12.7 C 8.13 g/m*3 12.7 C 4.8 km/h
579 10-04-2020 00:10:00 12.6 C 8.08 g/m*3 12.6 C 3.2 km/h
580 10-04-2020 00:15:00 12.4 C 8.09 g/m*3 12.4 C 3.2 km/h
581 10-04-2020 00:20:00 12.3 C 8.04 g/m*3 12.3 C 4.8 km/h
582 10-04-2020 00:25:00 12.2 C 7.99 g/m*3 12.2 C 3.2 km/h
583 10-04-2020 00:30:00 12 C 7.99 g/m*3 12 C 1.6 km/h
584 10-04-2020 00:35:00 11.9 C 8.05 g/m*3 11.9 C 0 km/h
585 10-04-2020 00:40:00 11.7 C 7.95 g/m*3 11.7 C 0 km/h
586 10-04-2020 00:45:00 11.5 C 7.85 g/m*3 11.5 C 0 km/h
587 10-04-2020 00:50:00 11.3 C 7.85 g/m*3 11.3 C 0 km/h
588 10-04-2020 00:55:00 11.1 C 7.86 g/m*3 11.1 C 0 km/h
589 10-04-2020 01:00:00 10.9 C 7.86 g/m*3 10.9 C 0 km/h
590 10-04-2020 01:05:00 10.8 C 7.81 g/m*3 10.8 C 0 km/h
591 10-04-2020 01:10:00 10.7 C 7.76 g/m*3 10.7 C 0 km/h
592 10-04-2020 01:15:00 10.6 C 7.71 g/m*3 10.6 C 0 km/h
593 10-04-2020 01:20:00 10.4 C 7.71 g/m*3 10.4 C 0 km/h
594 10-04-2020 01:25:00 10.3 C 7.76 g/m*3 10.3 C 0 km/h
595 10-04-2020 01:30:00 10.2 C 7.71 g/m*3 10.2 C 0 km/h
596 10-04-2020 01:35:00 10.2 C 7.71 g/m*3 10.2 C 0 km/h
597 10-04-2020 01:40:00 10.2 C 7.71 g/m*3 10.2 C 0 km/h
598 10-04-2020 01:45:00 10.1 C 7.66 g/m*3 10.1 C 0 km/h
599 10-04-2020 01:50:00 9.9 C 7.66 g/m*3 9.9 C 0 km/h
600 10-04-2020 01:55:00 9.8 C 7.61 g/m*3 9.8 C 0 km/h
Sensor: Nr:Datum:Temp:Abs-Feuchte:Windchill:Wind:
Aussen-T/F 601 10-04-2020 02:00:00 9.7 C 7.65 g/m*3 9.7 C 0 km/h
602 10-04-2020 02:05:00 9.6 C 7.51 g/m*3 9.6 C 0 km/h
603 10-04-2020 02:10:00 9.6 C 7.6 g/m*3 9.6 C 0 km/h
604 10-04-2020 02:15:00 9.6 C 7.6 g/m*3 9.6 C 0 km/h
605 10-04-2020 02:20:00 9.4 C 7.51 g/m*3 9.4 C 0 km/h
606 10-04-2020 02:25:00 9.3 C 7.46 g/m*3 9.3 C 0 km/h
607 10-04-2020 02:30:00 9.3 C 7.46 g/m*3 9.3 C 0 km/h
608 10-04-2020 02:35:00 9.2 C 7.41 g/m*3 9.2 C 0 km/h
609 10-04-2020 02:40:00 9.1 C 7.45 g/m*3 9.1 C 0 km/h
610 10-04-2020 02:45:00 9 C 7.41 g/m*3 9 C 0 km/h
611 10-04-2020 02:50:00 8.9 C 7.36 g/m*3 8.9 C 0 km/h
612 10-04-2020 02:55:00 8.8 C 7.31 g/m*3 8.8 C 0 km/h
613 10-04-2020 03:00:00 8.8 C 7.4 g/m*3 8.8 C 0 km/h
614 10-04-2020 03:05:00 8.7 C 7.35 g/m*3 8.7 C 0 km/h
615 10-04-2020 03:10:00 8.6 C 7.3 g/m*3 8.6 C 0 km/h
616 10-04-2020 03:15:00 8.4 C 7.21 g/m*3 8.4 C 0 km/h
617 10-04-2020 03:20:00 8.4 C 7.21 g/m*3 8.4 C 0 km/h
618 10-04-2020 03:25:00 8.3 C 7.25 g/m*3 8.3 C 0 km/h
619 10-04-2020 03:30:00 8.2 C 7.2 g/m*3 8.2 C 0 km/h
620 10-04-2020 03:35:00 8.1 C 7.16 g/m*3 8.1 C 0 km/h
621 10-04-2020 03:40:00 8.1 C 7.16 g/m*3 8.1 C 0 km/h
622 10-04-2020 03:45:00 8.1 C 7.24 g/m*3 8.1 C 0 km/h
623 10-04-2020 03:50:00 8 C 7.19 g/m*3 8 C 0 km/h
624 10-04-2020 03:55:00 7.9 C 7.15 g/m*3 7.9 C 0 km/h
625 10-04-2020 04:00:00 7.8 C 7.1 g/m*3 7.8 C 0 km/h
Sensor: Nr:Datum:Temp:Abs-Feuchte:Windchill:Wind:
Aussen-T/F 626 10-04-2020 04:05:00 7.7 C 7.05 g/m*3 7.7 C 0 km/h
627 10-04-2020 04:10:00 7.7 C 7.05 g/m*3 7.7 C 0 km/h
628 10-04-2020 04:15:00 7.6 C 7.01 g/m*3 7.6 C 0 km/h
629 10-04-2020 04:20:00 7.6 C 7.09 g/m*3 7.6 C 0 km/h
630 10-04-2020 04:25:00 7.5 C 7.04 g/m*3 7.5 C 0 km/h
631 10-04-2020 04:30:00 7.4 C 7 g/m*3 7.4 C 0 km/h
632 10-04-2020 04:35:00 7.3 C 6.95 g/m*3 7.3 C 0 km/h
633 10-04-2020 04:40:00 7.3 C 7.03 g/m*3 7.3 C 0 km/h
634 10-04-2020 04:45:00 7.2 C 6.99 g/m*3 7.2 C 0 km/h
635 10-04-2020 04:50:00 7.2 C 6.99 g/m*3 7.2 C 0 km/h
636 10-04-2020 04:55:00 7.1 C 6.94 g/m*3 7.1 C 0 km/h
637 10-04-2020 05:00:00 7.1 C 6.94 g/m*3 7.1 C 0 km/h
638 10-04-2020 05:05:00 7.1 C 6.94 g/m*3 7.1 C 0 km/h
639 10-04-2020 05:10:00 6.9 C 6.85 g/m*3 6.9 C 0 km/h
640 10-04-2020 05:15:00 7 C 6.97 g/m*3 7 C 0 km/h
641 10-04-2020 05:20:00 7 C 6.97 g/m*3 7 C 0 km/h
642 10-04-2020 05:25:00 7.1 C 7.02 g/m*3 7.1 C 0 km/h
643 10-04-2020 05:30:00 7.1 C 7.02 g/m*3 7.1 C 0 km/h
644 10-04-2020 05:35:00 7 C 6.97 g/m*3 7 C 0 km/h
645 10-04-2020 05:40:00 6.9 C 6.93 g/m*3 6.9 C 0 km/h
646 10-04-2020 05:45:00 6.8 C 6.88 g/m*3 6.8 C 0 km/h
647 10-04-2020 05:50:00 6.7 C 6.84 g/m*3 6.7 C 0 km/h
648 10-04-2020 05:55:00 6.6 C 6.79 g/m*3 6.6 C 0 km/h
649 10-04-2020 06:00:00 6.5 C 6.75 g/m*3 6.5 C 0 km/h
650 10-04-2020 06:05:00 6.4 C 6.71 g/m*3 6.4 C 0 km/h
Sensor: Nr:Datum:Temp:Abs-Feuchte:Windchill:Wind:
Aussen-T/F 651 10-04-2020 06:10:00 6.5 C 6.82 g/m*3 6.5 C 0 km/h
652 10-04-2020 06:15:00 6.4 C 6.78 g/m*3 6.4 C 0 km/h
653 10-04-2020 06:20:00 6.4 C 6.78 g/m*3 6.4 C 0 km/h
654 10-04-2020 06:25:00 6.3 C 6.74 g/m*3 6.3 C 0 km/h
655 10-04-2020 06:30:00 6.3 C 6.74 g/m*3 6.3 C 0 km/h
656 10-04-2020 06:35:00 6.3 C 6.81 g/m*3 6.3 C 0 km/h
657 10-04-2020 06:40:00 6.2 C 6.69 g/m*3 6.2 C 0 km/h
658 10-04-2020 06:45:00 6.2 C 6.69 g/m*3 6.2 C 0 km/h
659 10-04-2020 06:50:00 6.1 C 6.72 g/m*3 6.1 C 0 km/h
660 10-04-2020 06:55:00 6.1 C 6.72 g/m*3 6.1 C 0 km/h
661 10-04-2020 07:00:00 6.1 C 6.72 g/m*3 6.1 C 0 km/h
662 10-04-2020 07:05:00 6.1 C 6.72 g/m*3 6.1 C 0 km/h
663 10-04-2020 07:10:00 6 C 6.68 g/m*3 6 C 0 km/h
664 10-04-2020 07:15:00 6 C 6.68 g/m*3 6 C 0 km/h
665 10-04-2020 07:20:00 6 C 6.68 g/m*3 6 C 0 km/h
666 10-04-2020 07:25:00 6 C 6.68 g/m*3 6 C 0 km/h
667 10-04-2020 07:30:00 6 C 6.75 g/m*3 6 C 0 km/h
668 10-04-2020 07:35:00 6 C 6.75 g/m*3 6 C 0 km/h
669 10-04-2020 07:40:00 6 C 6.75 g/m*3 6 C 0 km/h
670 10-04-2020 07:45:00 6.1 C 6.79 g/m*3 6.1 C 0 km/h
671 10-04-2020 07:50:00 6.1 C 6.79 g/m*3 6.1 C 1.6 km/h
672 10-04-2020 07:55:00 6.2 C 6.84 g/m*3 6.2 C 0 km/h
673 10-04-2020 08:00:00 6.2 C 6.84 g/m*3 6.2 C 0 km/h
674 10-04-2020 08:05:00 6.3 C 6.88 g/m*3 6.3 C 0 km/h
675 10-04-2020 08:10:00 6.3 C 6.88 g/m*3 6.3 C 0 km/h
Sensor: Nr:Datum:Temp:Abs-Feuchte:Windchill:Wind:
Aussen-T/F 676 10-04-2020 08:15:00 6.3 C 6.88 g/m*3 6.3 C 0 km/h
677 10-04-2020 08:20:00 6.4 C 6.93 g/m*3 6.4 C 0 km/h
678 10-04-2020 08:25:00 6.5 C 7.05 g/m*3 6.5 C 0 km/h
679 10-04-2020 08:30:00 6.6 C 7.1 g/m*3 6.6 C 0 km/h
680 10-04-2020 08:35:00 6.6 C 7.1 g/m*3 6.6 C 0 km/h
681 10-04-2020 08:40:00 6.7 C 7.14 g/m*3 6.7 C 0 km/h
682 10-04-2020 08:45:00 6.7 C 7.14 g/m*3 6.7 C 0 km/h
683 10-04-2020 08:50:00 6.8 C 7.19 g/m*3 6.8 C 0 km/h
684 10-04-2020 08:55:00 6.9 C 7.24 g/m*3 6.9 C 0 km/h
685 10-04-2020 09:00:00 7.1 C 7.33 g/m*3 7.1 C 0 km/h
686 10-04-2020 09:05:00 7.2 C 7.38 g/m*3 7.2 C 0 km/h
687 10-04-2020 09:10:00 7.4 C 7.48 g/m*3 7.4 C 0 km/h
688 10-04-2020 09:15:00 7.6 C 7.57 g/m*3 7.6 C 0 km/h
689 10-04-2020 09:20:00 7.7 C 7.62 g/m*3 7.7 C 0 km/h
690 10-04-2020 09:25:00 7.8 C 7.67 g/m*3 7.8 C 0 km/h
691 10-04-2020 09:30:00 8 C 7.77 g/m*3 8 C 0 km/h
692 10-04-2020 09:35:00 8.1 C 7.82 g/m*3 8.1 C 0 km/h
693 10-04-2020 09:40:00 8.3 C 7.84 g/m*3 8.3 C 0 km/h
694 10-04-2020 09:45:00 8.4 C 7.89 g/m*3 8.4 C 0 km/h
695 10-04-2020 09:50:00 8.6 C 7.99 g/m*3 8.6 C 0 km/h
696 10-04-2020 09:55:00 8.8 C 8.09 g/m*3 8.8 C 0 km/h
697 10-04-2020 10:00:00 9 C 8.11 g/m*3 9 C 0 km/h
698 10-04-2020 10:05:00 9.2 C 8.22 g/m*3 9.2 C 0 km/h
699 10-04-2020 10:10:00 9.4 C 8.23 g/m*3 9.4 C 0 km/h
700 10-04-2020 10:15:00 9.7 C 8.39 g/m*3 9.7 C 0 km/h
Sensor: Nr:Datum:Temp:Abs-Feuchte:Windchill:Wind:
Aussen-T/F 701 10-04-2020 10:20:00 9.9 C 8.4 g/m*3 9.9 C 0 km/h
702 10-04-2020 10:25:00 10.3 C 8.52 g/m*3 10.3 C 0 km/h
703 10-04-2020 10:30:00 10.6 C 8.59 g/m*3 10.6 C 0 km/h
704 10-04-2020 10:35:00 10.9 C 8.75 g/m*3 10.9 C 0 km/h
705 10-04-2020 10:40:00 11.3 C 8.77 g/m*3 11.3 C 0 km/h
706 10-04-2020 10:45:00 11.6 C 8.83 g/m*3 11.6 C 4.8 km/h
707 10-04-2020 10:50:00 12 C 8.95 g/m*3 12 C 1.6 km/h
708 10-04-2020 10:55:00 12.5 C 9.02 g/m*3 12.5 C 3.2 km/h
709 10-04-2020 11:00:00 12.9 C 9.13 g/m*3 12.9 C 0 km/h
710 10-04-2020 11:05:00 13.2 C 9.07 g/m*3 13.2 C 0 km/h
711 10-04-2020 11:10:00 13.7 C 9.24 g/m*3 13.7 C 1.6 km/h
712 10-04-2020 11:15:00 14.1 C 9.1 g/m*3 14.1 C 4.8 km/h
713 10-04-2020 11:20:00 14.6 C 9.26 g/m*3 14.6 C 3.2 km/h
714 10-04-2020 11:25:00 15.1 C 9.29 g/m*3 15.1 C 1.6 km/h
715 10-04-2020 11:30:00 15.4 C 9.46 g/m*3 15.4 C 1.6 km/h
716 10-04-2020 11:35:00 15.7 C 9.37 g/m*3 15.7 C 1.6 km/h
717 10-04-2020 11:40:00 16.1 C 9.6 g/m*3 16.1 C 1.6 km/h
718 10-04-2020 11:45:00 16.4 C 9.07 g/m*3 16.4 C 3.2 km/h
719 10-04-2020 11:50:00 16.8 C 9.15 g/m*3 16.8 C 0 km/h
720 10-04-2020 11:55:00 17.1 C 9.03 g/m*3 17.1 C 4.8 km/h
721 10-04-2020 12:00:00 17.4 C 8.89 g/m*3 17.4 C 6.4 km/h
722 10-04-2020 12:05:00 17.8 C 8.8 g/m*3 17.8 C 1.6 km/h
723 10-04-2020 12:10:00 18.1 C 8.65 g/m*3 18.1 C 6.4 km/h
724 10-04-2020 12:15:00 18.3 C 8.76 g/m*3 18.3 C 6.4 km/h
725 10-04-2020 12:20:00 18.6 C 8.44 g/m*3 18.6 C 8.1 km/h
Sensor: Nr:Datum:Temp:Abs-Feuchte:Windchill:Wind:
Aussen-T/F 726 10-04-2020 12:25:00 18.8 C 8.54 g/m*3 18.8 C 8.1 km/h
727 10-04-2020 12:30:00 19.1 C 8.36 g/m*3 19.1 C 8.1 km/h
728 10-04-2020 12:35:00 19.1 C 7.87 g/m*3 19.1 C 8.1 km/h
729 10-04-2020 12:40:00 19.2 C 7.91 g/m*3 19.2 C 6.4 km/h
730 10-04-2020 12:45:00 19.4 C 7.84 g/m*3 19.4 C 3.2 km/h
731 10-04-2020 12:50:00 19.4 C 7.67 g/m*3 19.4 C 9.7 km/h
732 10-04-2020 12:55:00 19.6 C 7.93 g/m*3 19.6 C 6.4 km/h
733 10-04-2020 13:00:00 19.8 C 8.03 g/m*3 19.8 C 12.9 km/h
734 10-04-2020 13:05:00 19.7 C 7.81 g/m*3 19.7 C 11.3 km/h
735 10-04-2020 13:10:00 19.7 C 7.98 g/m*3 19.7 C 8.1 km/h
736 10-04-2020 13:15:00 19.7 C 8.15 g/m*3 19.7 C 4.8 km/h
737 10-04-2020 13:20:00 19.8 C 7.52 g/m*3 19.8 C 11.3 km/h
738 10-04-2020 13:25:00 20 C 7.6 g/m*3 20 C 12.9 km/h
739 10-04-2020 13:30:00 20.1 C 7.65 g/m*3 20.1 C 8.1 km/h
740 10-04-2020 13:35:00 20.2 C 7.87 g/m*3 20.2 C 6.4 km/h
741 10-04-2020 13:40:00 20.3 C 7.74 g/m*3 20.3 C 9.7 km/h
742 10-04-2020 13:45:00 20.3 C 7.74 g/m*3 20.3 C 6.4 km/h
743 10-04-2020 13:50:00 20.3 C 7.74 g/m*3 20.3 C 8.1 km/h
744 10-04-2020 13:55:00 20.3 C 7.74 g/m*3 20.3 C 4.8 km/h
745 10-04-2020 14:00:00 20.6 C 7.87 g/m*3 20.6 C 8.1 km/h
746 10-04-2020 14:05:00 20.7 C 7.92 g/m*3 20.7 C 8.1 km/h
747 10-04-2020 14:10:00 20.8 C 7.97 g/m*3 20.8 C 6.4 km/h
748 10-04-2020 14:15:00 20.8 C 7.42 g/m*3 20.8 C 6.4 km/h
749 10-04-2020 14:20:00 20.8 C 7.79 g/m*3 20.8 C 6.4 km/h
750 10-04-2020 14:25:00 20.9 C 7.29 g/m*3 20.9 C 9.7 km/h
Sensor: Nr:Datum:Temp:Abs-Feuchte:Windchill:Wind:
Aussen-T/F 751 10-04-2020 14:30:00 21.1 C 7.37 g/m*3 21.1 C 3.2 km/h
752 10-04-2020 14:35:00 21.1 C 7.37 g/m*3 21.1 C 1.6 km/h
753 10-04-2020 14:40:00 21.2 C 7.78 g/m*3 21.2 C 4.8 km/h
754 10-04-2020 14:45:00 21.4 C 7.12 g/m*3 21.4 C 11.3 km/h
755 10-04-2020 14:50:00 21.6 C 7.21 g/m*3 21.6 C 11.3 km/h
756 10-04-2020 14:55:00 21.8 C 6.91 g/m*3 21.8 C 11.3 km/h
757 10-04-2020 15:00:00 21.8 C 6.72 g/m*3 21.8 C 9.7 km/h
758 10-04-2020 15:05:00 21.9 C 6.75 g/m*3 21.9 C 4.8 km/h
759 10-04-2020 15:10:00 21.9 C 6.56 g/m*3 21.9 C 3.2 km/h
760 10-04-2020 15:15:00 21.9 C 6.75 g/m*3 21.9 C 6.4 km/h
761 10-04-2020 15:20:00 21.9 C 6.56 g/m*3 21.9 C 4.8 km/h
762 10-04-2020 15:25:00 21.8 C 6.91 g/m*3 21.8 C 9.7 km/h
763 10-04-2020 15:30:00 21.8 C 6.72 g/m*3 21.8 C 4.8 km/h
764 10-04-2020 15:35:00 21.9 C 7.33 g/m*3 21.9 C 4.8 km/h
765 10-04-2020 15:40:00 22.1 C 7.03 g/m*3 22.1 C 6.4 km/h
766 10-04-2020 15:45:00 22.2 C 7.07 g/m*3 22.2 C 8.1 km/h
767 10-04-2020 15:50:00 22.2 C 7.46 g/m*3 22.2 C 9.7 km/h
768 10-04-2020 15:55:00 22.3 C 7.31 g/m*3 22.3 C 9.7 km/h
769 10-04-2020 16:00:00 22.3 C 7.5 g/m*3 22.3 C 4.8 km/h
770 10-04-2020 16:05:00 22.4 C 7.55 g/m*3 22.4 C 4.8 km/h
771 10-04-2020 16:10:00 22.6 C 7.63 g/m*3 22.6 C 11.3 km/h
772 10-04-2020 16:15:00 22.7 C 7.48 g/m*3 22.7 C 9.7 km/h
773 10-04-2020 16:20:00 22.7 C 7.48 g/m*3 22.7 C 6.4 km/h
774 10-04-2020 16:25:00 22.9 C 7.56 g/m*3 22.9 C 8.1 km/h
775 10-04-2020 16:30:00 23.2 C 7.48 g/m*3 23.2 C 9.7 km/h
Sensor: Nr:Datum:Temp:Abs-Feuchte:Windchill:Wind:
Aussen-T/F 776 10-04-2020 16:35:00 23.4 C 7.78 g/m*3 23.4 C 8.1 km/h
777 10-04-2020 16:40:00 23.6 C 7.44 g/m*3 23.6 C 11.3 km/h
778 10-04-2020 16:45:00 23.4 C 7.57 g/m*3 23.4 C 8.1 km/h
779 10-04-2020 16:50:00 23.5 C 7.4 g/m*3 23.5 C 8.1 km/h
780 10-04-2020 16:55:00 23.8 C 7.74 g/m*3 23.8 C 6.4 km/h
781 10-04-2020 17:00:00 23.9 C 7.36 g/m*3 23.9 C 12.9 km/h
782 10-04-2020 17:05:00 24.1 C 7.66 g/m*3 24.1 C 8.1 km/h
783 10-04-2020 17:10:00 24.2 C 7.48 g/m*3 24.2 C 9.7 km/h
784 10-04-2020 17:15:00 24.1 C 7.22 g/m*3 24.1 C 8.1 km/h
785 10-04-2020 17:20:00 23.8 C 7.1 g/m*3 23.8 C 11.3 km/h
786 10-04-2020 17:25:00 23.6 C 7.23 g/m*3 23.6 C 11.3 km/h
787 10-04-2020 17:30:00 23.8 C 7.53 g/m*3 23.8 C 6.4 km/h
788 10-04-2020 17:35:00 24.1 C 7.44 g/m*3 24.1 C 8.1 km/h
789 10-04-2020 17:40:00 24.2 C 7.7 g/m*3 24.2 C 6.4 km/h
790 10-04-2020 17:45:00 24.3 C 7.3 g/m*3 24.3 C 9.7 km/h
791 10-04-2020 17:50:00 24.1 C 7 g/m*3 24.1 C 11.3 km/h
792 10-04-2020 17:55:00 23.8 C 7.31 g/m*3 23.8 C 9.7 km/h
793 10-04-2020 18:00:00 23.5 C 6.98 g/m*3 23.5 C 12.9 km/h
794 10-04-2020 18:05:00 23.4 C 7.15 g/m*3 23.4 C 14.5 km/h
795 10-04-2020 18:10:00 23.2 C 7.28 g/m*3 23.2 C 12.9 km/h
796 10-04-2020 18:15:00 23.2 C 7.28 g/m*3 23.2 C 11.3 km/h
797 10-04-2020 18:20:00 23.2 C 7.28 g/m*3 23.2 C 11.3 km/h
798 10-04-2020 18:25:00 23.2 C 7.48 g/m*3 23.2 C 8.1 km/h
799 10-04-2020 18:30:00 23.2 C 7.48 g/m*3 23.2 C 11.3 km/h
800 10-04-2020 18:35:00 23.1 C 7.65 g/m*3 23.1 C 8.1 km/h
Sensor: Nr:Datum:Temp:Abs-Feuchte:Windchill:Wind:
Aussen-T/F 801 10-04-2020 18:40:00 23 C 7.81 g/m*3 23 C 8.1 km/h
802 10-04-2020 18:45:00 22.9 C 7.36 g/m*3 22.9 C 11.3 km/h
803 10-04-2020 18:50:00 22.7 C 7.27 g/m*3 22.7 C 12.9 km/h
804 10-04-2020 18:55:00 22.6 C 7.23 g/m*3 22.6 C 8.1 km/h
805 10-04-2020 19:00:00 22.4 C 7.35 g/m*3 22.4 C 9.7 km/h
806 10-04-2020 19:05:00 22.3 C 7.31 g/m*3 22.3 C 9.7 km/h
807 10-04-2020 19:10:00 22.2 C 7.26 g/m*3 22.2 C 9.7 km/h
808 10-04-2020 19:15:00 22 C 7.18 g/m*3 22 C 12.9 km/h
809 10-04-2020 19:20:00 21.7 C 7.44 g/m*3 21.7 C 11.3 km/h
810 10-04-2020 19:25:00 21.5 C 7.17 g/m*3 21.5 C 12.9 km/h
811 10-04-2020 19:30:00 21.3 C 7.08 g/m*3 21.3 C 9.7 km/h
812 10-04-2020 19:35:00 21.2 C 7.23 g/m*3 21.2 C 11.3 km/h
813 10-04-2020 19:40:00 21 C 7.14 g/m*3 21 C 9.7 km/h
814 10-04-2020 19:45:00 20.8 C 7.06 g/m*3 20.8 C 11.3 km/h
815 10-04-2020 19:50:00 20.7 C 7.2 g/m*3 20.7 C 11.3 km/h
816 10-04-2020 19:55:00 20.5 C 7.3 g/m*3 20.5 C 9.7 km/h
817 10-04-2020 20:00:00 20.3 C 7.21 g/m*3 20.3 C 4.8 km/h
818 10-04-2020 20:05:00 20 C 7.6 g/m*3 20 C 1.6 km/h
819 10-04-2020 20:10:00 19.6 C 7.77 g/m*3 19.6 C 4.8 km/h
820 10-04-2020 20:15:00 19.1 C 7.7 g/m*3 19.1 C 1.6 km/h
821 10-04-2020 20:20:00 18.4 C 7.86 g/m*3 18.4 C 0 km/h
822 10-04-2020 20:25:00 17.8 C 7.74 g/m*3 17.8 C 3.2 km/h
823 10-04-2020 20:30:00 17.2 C 7.76 g/m*3 17.2 C 3.2 km/h
824 10-04-2020 20:35:00 16.7 C 7.82 g/m*3 16.7 C 0 km/h
825 10-04-2020 20:40:00 16.3 C 7.63 g/m*3 16.3 C 1.6 km/h
Sensor: Nr:Datum:Temp:Abs-Feuchte:Windchill:Wind:
Aussen-T/F 826 10-04-2020 20:45:00 16 C 7.77 g/m*3 16 C 0 km/h
827 10-04-2020 20:50:00 15.6 C 7.58 g/m*3 15.6 C 3.2 km/h
828 10-04-2020 20:55:00 15.4 C 7.62 g/m*3 15.4 C 4.8 km/h
829 10-04-2020 21:00:00 15.3 C 7.57 g/m*3 15.3 C 3.2 km/h
830 10-04-2020 21:05:00 15.2 C 7.66 g/m*3 15.2 C 4.8 km/h
831 10-04-2020 21:10:00 15 C 7.57 g/m*3 15 C 0 km/h
832 10-04-2020 21:15:00 14.8 C 7.6 g/m*3 14.8 C 1.6 km/h
833 10-04-2020 21:20:00 14.6 C 7.63 g/m*3 14.6 C 4.8 km/h
834 10-04-2020 21:25:00 14.4 C 7.54 g/m*3 14.4 C 1.6 km/h
835 10-04-2020 21:30:00 14.3 C 7.49 g/m*3 14.3 C 3.2 km/h
836 10-04-2020 21:35:00 14.2 C 7.33 g/m*3 14.2 C 3.2 km/h
837 10-04-2020 21:40:00 14.2 C 7.45 g/m*3 14.2 C 3.2 km/h
838 10-04-2020 21:45:00 14.2 C 7.57 g/m*3 14.2 C 1.6 km/h
839 10-04-2020 21:50:00 14.1 C 7.52 g/m*3 14.1 C 1.6 km/h
840 10-04-2020 21:55:00 14 C 7.48 g/m*3 14 C 3.2 km/h
841 10-04-2020 22:00:00 13.9 C 7.67 g/m*3 13.9 C 1.6 km/h
842 10-04-2020 22:05:00 13.9 C 7.67 g/m*3 13.9 C 3.2 km/h
843 10-04-2020 22:10:00 13.9 C 7.55 g/m*3 13.9 C 1.6 km/h
844 10-04-2020 22:15:00 14 C 7.72 g/m*3 14 C 3.2 km/h
845 10-04-2020 22:20:00 14.1 C 7.77 g/m*3 14.1 C 3.2 km/h
846 10-04-2020 22:25:00 14.2 C 7.94 g/m*3 14.2 C 1.6 km/h
847 10-04-2020 22:30:00 14.2 C 7.69 g/m*3 14.2 C 3.2 km/h
848 10-04-2020 22:35:00 14.2 C 7.82 g/m*3 14.2 C 0 km/h
849 10-04-2020 22:40:00 14.2 C 7.82 g/m*3 14.2 C 0 km/h
850 10-04-2020 22:45:00 14.1 C 7.77 g/m*3 14.1 C 0 km/h
Sensor: Nr:Datum:Temp:Abs-Feuchte:Windchill:Wind:
Aussen-T/F 851 10-04-2020 22:50:00 14 C 7.6 g/m*3 14 C 3.2 km/h
852 10-04-2020 22:55:00 13.9 C 7.55 g/m*3 13.9 C 3.2 km/h
853 10-04-2020 23:00:00 13.7 C 7.46 g/m*3 13.7 C 1.6 km/h
854 10-04-2020 23:05:00 13.6 C 7.41 g/m*3 13.6 C 4.8 km/h
855 10-04-2020 23:10:00 13.4 C 7.44 g/m*3 13.4 C 3.2 km/h
856 10-04-2020 23:15:00 13.2 C 7.46 g/m*3 13.2 C 0 km/h
857 10-04-2020 23:20:00 13 C 7.37 g/m*3 13 C 0 km/h
858 10-04-2020 23:25:00 12.8 C 7.28 g/m*3 12.8 C 3.2 km/h
859 10-04-2020 23:30:00 12.7 C 7.35 g/m*3 12.7 C 3.2 km/h
860 10-04-2020 23:35:00 12.6 C 7.41 g/m*3 12.6 C 3.2 km/h
861 10-04-2020 23:40:00 12.4 C 7.43 g/m*3 12.4 C 3.2 km/h
862 10-04-2020 23:45:00 12.3 C 7.38 g/m*3 12.3 C 4.8 km/h
863 10-04-2020 23:50:00 12.1 C 7.4 g/m*3 12.1 C 1.6 km/h
864 10-04-2020 23:55:00 11.9 C 7.31 g/m*3 11.9 C 3.2 km/h

Legende:
   Min
   Max


Maximal/Minimal-Werte vom 08.04.2020 - 10.04.2020

Sensor Min Max Avg
Temp
(Aussen-T/F)
5.6 °C
08-04-2020  06:55:00
25.7 °C
08-04-2020  16:55:00
14.64 °C
Abs-Feuchte
(Aussen-T/F)
5.59 g/m*3
08-04-2020  17:20:00
10.32 g/m*3
08-04-2020  11:30:00
7.49 g/m*3
Windchill
(Aussen-T/F)
5.6 C
08-04-2020  06:55:00
25.7 C
08-04-2020  16:55:00
14.62 C

Die Daten stammen von einer Davis Vantage Pro 2 Wetter-Station und werden unter Linux mit der Software wview2wettercgi und aufbereitet. Alle Angaben erfolgen ohne Gewähr für ihre Vollständigkeit oder Richtigkeit.
Kontakt: Rainer Krienke krienke@uni-koblenz.de . Meine Webseiten an der Uni Koblenz oder privat.
Version: $Revision: 0.78 $